METAR Data
IDs: Format: Raw Decoded Include TAF

Data at: 1853 UTC 14 Dec 2018

KAQO 141835Z AUTO 32014G23KT 10SM OVC026 09/02 A3014 RMK AO2
KAQO 141815Z AUTO 31013G20KT 10SM OVC026 08/02 A3015 RMK AO2
KAQO 141755Z AUTO 32017G21KT 10SM OVC026 08/02 A3015 RMK AO2
KAQO 141735Z AUTO 32017G24KT 10SM OVC028 08/02 A3015 RMK AO2
KAQO 141715Z AUTO 32016G24KT 10SM OVC028 08/01 A3016 RMK AO2
KAQO 141655Z AUTO 32015G23KT 10SM OVC028 08/01 A3016 RMK AO2
KAQO 141635Z AUTO 32012G21KT 10SM OVC028 07/02 A3016 RMK AO2
KAQO 141615Z AUTO 31012G20KT 10SM OVC026 07/02 A3014 RMK AO2
KAQO 141555Z AUTO 31017G21KT 10SM OVC024 07/02 A3013 RMK AO2
KAQO 141535Z AUTO 31014G22KT 10SM OVC022 07/02 A3013 RMK AO2
KAQO 141515Z AUTO 31011G18KT 10SM OVC020 06/03 A3013 RMK AO2
KAQO 141455Z AUTO 32013G18KT 10SM OVC020 06/03 A3012 RMK AO2
KAQO 141435Z AUTO 32013G18KT 10SM BKN020 05/02 A3012 RMK AO2 LTG DSNT NE
KAQO 141415Z AUTO 31015G19KT 10SM FEW020 SCT036 04/02 A3011 RMK AO2
KAQO 141355Z AUTO 31016G22KT 10SM SCT020 BKN065 04/02 A3010 RMK AO2
KAQO 141335Z AUTO 32014G21KT 10SM BKN020 OVC065 04/02 A3009 RMK AO2 LTG DSNT NE
KAQO 141315Z AUTO 31014G20KT 10SM OVC018 04/02 A3008 RMK AO2
KAQO 141255Z AUTO 31013G21KT 10SM OVC018 04/02 A3009 RMK AO2
KAQO 141235Z AUTO 31013G19KT 10SM BKN018 OVC022 03/02 A3008 RMK AO2
KAQO 141215Z AUTO 31011KT 10SM BKN016 OVC022 03/02 A3008 RMK AO2 LTG DSNT NE
KAQO 141155Z AUTO 30011KT 10SM OVC016 03/02 A3007 RMK AO2 LTG DSNT NE
KAQO 141135Z AUTO 30011G17KT 10SM OVC016 03/02 A3006 RMK AO2
KAQO 141115Z AUTO 29015G19KT 10SM OVC016 03/02 A3006 RMK AO2 LTG DSNT NE
KAQO 141055Z AUTO 30013G18KT 10SM UP OVC016 03/02 A3005 RMK AO2
KAQO 141035Z AUTO 31011G19KT 10SM BKN018 OVC022 03/02 A3005 RMK AO2
KAQO 141015Z AUTO 31013G20KT 10SM UP OVC018 03/02 A3004 RMK AO2
KAQO 140955Z AUTO 31011G20KT 10SM OVC019 04/02 A3004 RMK AO2
KAQO 140935Z AUTO 31013G23KT 10SM BKN019 OVC024 04/02 A3003 RMK AO2
KAQO 140915Z AUTO 31015G21KT 10SM BKN019 OVC024 04/02 A3003 RMK AO2
KAQO 140855Z AUTO 29011G18KT 10SM OVC019 04/02 A3002 RMK AO2
KAQO 140835Z AUTO 30015G21KT 10SM BKN017 OVC024 04/02 A3002 RMK AO2
KAQO 140815Z AUTO 30013G23KT 10SM BKN017 OVC022 04/02 A3001 RMK AO2
KAQO 140755Z AUTO 31012G18KT 9SM UP BKN017 04/03 A3001 RMK AO2
KAQO 140735Z AUTO 30014G22KT 10SM FEW002 BKN017 BKN048 04/03 A3000 RMK AO2
KAQO 140715Z AUTO 30013G19KT 10SM UP SCT019 BKN046 04/03 A3000 RMK AO2
KAQO 140655Z AUTO 30013G22KT 10SM SCT017 OVC046 04/02 A2999 RMK AO2
KAQO 140635Z AUTO 31014G26KT 10SM BKN017 OVC022 04/02 A2999 RMK AO2
KAQO 140615Z AUTO 30014G22KT 10SM BKN017 BKN022 04/03 A2999 RMK AO2
KAQO 140555Z AUTO 31017G25KT 10SM FEW019 05/03 A2998 RMK AO2
KAQO 140535Z AUTO 31020G28KT 9SM -RA FEW001 BKN019 04/03 A2997 RMK AO2
KAQO 140515Z AUTO 31017G28KT 7SM -RA OVC019 05/03 A2997 RMK AO2
KAQO 140455Z AUTO 31019G24KT 10SM OVC021 06/03 A2996 RMK AO2
KAQO 140435Z AUTO 31022G29KT 10SM BKN019 06/03 A2996 RMK AO2
KAQO 140415Z AUTO 30018G24KT 10SM BKN019 05/03 A2996 RMK AO2
KAQO 140355Z AUTO 30015G23KT 10SM UP OVC019 04/03 A2995 RMK AO2
KAQO 140335Z AUTO 29013G25KT 10SM BKN017 04/03 A2995 RMK AO2
KAQO 140315Z AUTO 30016G25KT 10SM UP BKN019 04/02 A2995 RMK AO2
KAQO 140255Z AUTO 30020G26KT 10SM OVC017 04/03 A2995 RMK AO2
KAQO 140235Z AUTO 30013G29KT 10SM BKN019 OVC026 05/03 A2995 RMK AO2
KAQO 140215Z AUTO 31023G30KT 10SM BKN019 OVC026 06/02 A2995 RMK AO2
KAQO 140155Z AUTO 29012G23KT 10SM OVC021 06/02 A2994 RMK AO2
KAQO 140135Z AUTO 29015G21KT 10SM OVC021 06/02 A2994 RMK AO2
KAQO 140115Z AUTO 29021G27KT 10SM BKN022 06/02 A2994 RMK AO2
KAQO 140055Z AUTO 29017G25KT 10SM OVC022 06/02 A2994 RMK AO2
KAQO 140035Z AUTO 30020G30KT 10SM OVC022 06/02 A2993 RMK AO2
KAQO 140015Z AUTO 30020G25KT 10SM OVC022 07/02 A2993 RMK AO2
KAQO 132355Z AUTO 29013G23KT 10SM OVC022 07/03 A2992 RMK AO2
KAQO 132335Z AUTO 29016G27KT 10SM OVC022 07/03 A2991 RMK AO2
KAQO 132315Z AUTO 29013G25KT 10SM BKN022 OVC028 07/03 A2990 RMK AO2 LTG DSNT NE
KAQO 132255Z AUTO 29017G26KT 10SM OVC025 07/03 A2990 RMK AO2
KAQO 132235Z AUTO 29019G28KT 10SM BKN027 OVC044 08/03 A2989 RMK AO2
KAQO 132215Z AUTO 29014G26KT 10SM SCT029 BKN036 OVC045 08/03 A2989 RMK AO2
KAQO 132155Z AUTO 30014G25KT 10SM SCT030 BKN034 OVC042 09/02 A2988 RMK AO2
KAQO 132135Z AUTO 30017G24KT 10SM BKN027 BKN033 BKN041 09/03 A2987 RMK AO2
KAQO 132115Z AUTO 28019G26KT 10SM BKN027 BKN033 10/03 A2986 RMK AO2
KAQO 132055Z AUTO 29025G31KT 10SM FEW039 SCT060 12/04 A2983 RMK AO2 LTG DSNT N AND NE
KAQO 132035Z AUTO 27017G24KT 10SM FEW041 SCT048 BKN060 13/04 A2982 RMK AO2 LTG DSNT N AND NE
KAQO 132015Z AUTO 26018G25KT 10SM CLR 16/02 A2980 RMK AO2
KAQO 131955Z AUTO 29019G25KT 10SM CLR 15/02 A2980 RMK AO2 LTG DSNT N AND NE
KAQO 131935Z AUTO 29022G28KT 10SM FEW065 FEW075 SCT085 17/02 A2981 RMK AO2 LTG DSNT N
KAQO 131915Z AUTO 27019G23KT 10SM FEW065 17/00 A2979 RMK AO2
KAQO 131855Z AUTO 27018G25KT 10SM SCT075 18/00 A2979 RMK AO2
KAQO 131835Z AUTO 27017G22KT 10SM CLR 18/00 A2979 RMK AO2
KAQO 131815Z AUTO 26015G21KT 9SM CLR 18/02 A2979 RMK AO2 LTG DSNT N AND NE
KAQO 131755Z AUTO 28016G22KT 10SM CLR 18/02 A2980 RMK AO2
KAQO 131735Z AUTO 29014G22KT 10SM CLR 17/04 A2981 RMK AO2
KAQO 131715Z AUTO 28013G22KT 10SM CLR 17/04 A2982 RMK AO2
KAQO 131655Z AUTO 30015G24KT 10SM CLR 17/05 A2982 RMK AO2 LTG DSNT NE
KAQO 131635Z AUTO 27016G22KT 10SM CLR 17/06 A2982 RMK AO2
KAQO 131615Z AUTO 29015G21KT 10SM CLR 17/07 A2981 RMK AO2
KAQO 131555Z AUTO 28014G21KT 10SM CLR 17/08 A2980 RMK AO2 LTG DSNT NE
KAQO 131535Z AUTO 27013G16KT 10SM CLR 16/11 A2979 RMK AO2
KAQO 131515Z AUTO 27011KT 10SM CLR 14/12 A2979 RMK AO2
KAQO 131455Z AUTO 26005KT 10SM CLR 13/12 A2978 RMK AO2
KAQO 131435Z AUTO 26003KT 10SM CLR 12/11 A2978 RMK AO2
KAQO 131415Z AUTO 00000KT 8SM CLR 10/09 A2977 RMK AO2
KAQO 131355Z AUTO 00000KT 7SM CLR 09/09 A2976 RMK AO2
KAQO 131335Z AUTO 00000KT 5SM BR CLR 09/08 A2976 RMK AO2
KAQO 131315Z AUTO 00000KT 8SM CLR 09/09 A2975 RMK AO2
KAQO 131255Z AUTO 00000KT 9SM FEW090 10/09 A2975 RMK AO2
KAQO 131235Z AUTO 00000KT 9SM FEW110 10/09 A2975 RMK AO2
KAQO 131215Z AUTO 00000KT 7SM FEW110 08/08 A2974 RMK AO2
KAQO 131155Z AUTO 00000KT 3/4SM BR VV005 08/07 A2975 RMK AO2
KAQO 131135Z AUTO 00000KT 1 1/2SM BR CLR 08/07 A2974 RMK AO2
KAQO 131115Z AUTO 00000KT 2 1/2SM BR CLR 08/07 A2974 RMK AO2
KAQO 131055Z AUTO 00000KT 3/4SM BR VV005 09/08 A2974 RMK AO2
KAQO 131035Z AUTO 00000KT 6SM BR CLR 09/08 A2974 RMK AO2
KAQO 131015Z AUTO 00000KT 10SM CLR 11/09 A2975 RMK AO2 LTG DSNT NE
KAQO 130955Z AUTO 00000KT 9SM CLR 10/09 A2975 RMK AO2 LTG DSNT NE
KAQO 130935Z AUTO 30003KT 10SM CLR 11/09 A2976 RMK AO2
KAQO 130915Z AUTO 00000KT 10SM CLR 11/09 A2977 RMK AO2 LTG DSNT NE AND SE
KAQO 130855Z AUTO 00000KT 10SM CLR 11/09 A2979 RMK AO2 LTG DSNT N AND NE
KAQO 130835Z AUTO 00000KT 10SM CLR 11/10 A2980 RMK AO2
KAQO 130815Z AUTO 00000KT 10SM CLR 11/10 A2980 RMK AO2
KAQO 130755Z AUTO 00000KT 10SM CLR 11/10 A2980 RMK AO2
KAQO 130735Z AUTO 00000KT 10SM CLR 11/10 A2981 RMK AO2
KAQO 130715Z AUTO 00000KT 10SM CLR 11/10 A2982 RMK AO2
KAQO 130655Z AUTO 00000KT 10SM CLR 12/10 A2983 RMK AO2